createdAt,value
2022-12-16T00:02:08.137Z,100621.06
2022-12-16T00:07:10.392Z,100620.28
2022-12-16T00:12:12.610Z,100630.81
2022-12-16T00:17:14.817Z,100623.41
2022-12-16T00:22:17.108Z,100620.28
2022-12-16T00:27:19.337Z,100628.94
2022-12-16T00:32:21.582Z,100627.06
2022-12-16T00:37:23.952Z,100650.00
2022-12-16T00:42:26.215Z,100630.94
2022-12-16T00:47:28.408Z,100637.41
2022-12-16T00:52:30.934Z,100640.75
2022-12-16T01:03:21.975Z,100630.09
2022-12-16T01:08:24.424Z,100638.50
2022-12-16T01:13:26.951Z,100638.19
2022-12-16T01:18:29.191Z,100665.25
2022-12-16T01:23:31.679Z,100643.63
2022-12-16T01:28:33.896Z,100656.63
2022-12-16T01:33:36.354Z,100649.53
2022-12-16T01:38:39.046Z,100671.72
2022-12-16T01:43:42.190Z,100673.03
2022-12-16T01:48:59.376Z,100673.63
2022-12-16T01:54:17.626Z,100658.75
2022-12-16T01:59:20.740Z,100658.75
2022-12-16T02:04:24.195Z,100650.16
2022-12-16T02:09:26.759Z,100662.56
2022-12-16T02:14:31.785Z,100670.19
2022-12-16T02:19:45.863Z,100678.06
2022-12-16T02:24:56.639Z,100676.22
2022-12-16T02:30:17.191Z,100636.13
2022-12-16T02:35:25.850Z,100657.13
2022-12-16T02:40:37.036Z,100666.03
2022-12-16T02:45:40.631Z,100655.00
2022-12-16T02:50:51.847Z,100660.47
2022-12-16T02:56:01.691Z,100670.19
2022-12-16T03:01:24.193Z,100670.38
2022-12-16T03:06:27.794Z,100665.25
2022-12-16T03:11:31.737Z,100669.41
2022-12-16T03:16:37.688Z,100672.31
2022-12-16T03:22:10.034Z,100662.75
2022-12-16T03:27:27.556Z,100685.13
2022-12-16T03:32:36.600Z,100688.66
2022-12-16T03:37:40.447Z,100665.06
2022-12-16T03:42:44.245Z,100637.88
2022-12-16T03:47:51.810Z,100658.22
2022-12-16T03:52:54.301Z,100669.59
2022-12-16T03:57:57.617Z,100622.84
2022-12-16T04:03:00.144Z,100628.59
2022-12-16T04:08:02.564Z,100655.34
2022-12-16T04:13:23.252Z,100652.34
2022-12-16T04:18:44.477Z,100659.59
2022-12-16T04:24:11.675Z,100703.50
2022-12-16T04:29:14.195Z,100683.53
2022-12-16T04:34:29.668Z,100723.34
2022-12-16T04:39:50.395Z,100698.81
2022-12-16T04:45:11.266Z,100711.31
2022-12-16T04:50:32.439Z,100716.44
2022-12-16T04:55:53.338Z,100696.59
2022-12-16T05:01:14.149Z,100742.88
2022-12-16T05:06:35.700Z,100731.41
2022-12-16T05:11:56.357Z,100748.19
2022-12-16T05:17:17.104Z,100734.84
2022-12-16T05:22:37.878Z,100757.41
2022-12-16T05:27:58.681Z,100743.53
2022-12-16T05:33:19.726Z,100708.75
2022-12-16T05:38:40.371Z,100747.03
2022-12-16T05:44:01.311Z,100732.53
2022-12-16T05:49:22.028Z,100746.56
2022-12-16T05:54:43.340Z,100736.91
2022-12-16T06:00:03.950Z,100762.66
2022-12-16T06:05:25.133Z,100784.91
2022-12-16T06:10:46.164Z,100769.72
2022-12-16T06:16:09.123Z,100777.19
2022-12-16T06:21:30.271Z,100781.38
2022-12-16T06:26:50.782Z,100803.63
2022-12-16T06:32:11.123Z,100819.16
2022-12-16T06:37:33.624Z,100802.91
2022-12-16T06:42:57.824Z,100791.38
2022-12-16T06:48:18.939Z,100809.28
2022-12-16T06:53:39.430Z,100804.78
2022-12-16T06:59:00.396Z,100839.16
2022-12-16T07:04:20.890Z,100824.28
2022-12-16T07:09:41.170Z,100842.03
2022-12-16T07:15:01.788Z,100825.59
2022-12-16T07:20:23.219Z,100832.72
2022-12-16T07:25:43.982Z,100827.00
2022-12-16T07:31:04.830Z,100818.66
2022-12-16T07:36:26.200Z,100828.44
2022-12-16T07:41:50.204Z,100819.28
2022-12-16T07:47:11.041Z,100855.19
2022-12-16T07:52:31.772Z,100826.66
2022-12-16T07:57:52.527Z,100845.22
2022-12-16T08:03:14.147Z,100860.00
2022-12-16T08:08:34.909Z,100863.09
2022-12-16T08:13:55.801Z,100840.56
2022-12-16T08:19:16.717Z,100855.59
2022-12-16T08:24:38.139Z,100844.69
2022-12-16T08:29:58.644Z,100865.56
2022-12-16T08:35:20.097Z,100836.91
2022-12-16T08:40:40.798Z,100852.53
2022-12-16T08:46:02.261Z,100835.19
2022-12-16T08:51:24.319Z,100826.47
2022-12-16T08:56:44.878Z,100837.69
2022-12-16T09:02:06.260Z,100846.03
2022-12-16T09:07:27.135Z,100839.78
2022-12-16T09:12:48.082Z,100828.63
2022-12-16T09:18:15.709Z,100827.75
2022-12-16T09:23:36.863Z,100812.25
2022-12-16T09:28:57.678Z,100829.81
2022-12-16T09:34:18.565Z,100814.75
2022-12-16T09:39:59.083Z,100803.78
2022-12-16T09:45:51.872Z,100788.53
2022-12-16T09:51:17.157Z,100811.56
2022-12-16T09:56:45.591Z,100807.13
2022-12-16T10:02:07.172Z,100789.31
2022-12-16T10:07:35.654Z,100774.41
2022-12-16T10:13:02.221Z,100791.78
2022-12-16T10:18:55.598Z,100782.50
2022-12-16T10:24:43.424Z,100761.16
2022-12-16T10:30:06.004Z,100737.09
2022-12-16T10:35:38.784Z,100765.00
2022-12-16T10:40:59.474Z,100750.25
2022-12-16T10:46:27.457Z,100768.97
2022-12-16T10:51:49.415Z,100760.47
2022-12-16T10:57:20.238Z,100764.03
2022-12-16T11:02:44.205Z,100754.88
2022-12-16T11:08:05.055Z,100763.63
2022-12-16T11:13:40.382Z,100733.31
2022-12-16T11:19:09.381Z,100741.59
2022-12-16T11:24:37.722Z,100738.53
2022-12-16T11:30:15.212Z,100725.88
2022-12-16T11:35:39.165Z,100720.06
2022-12-16T11:41:01.230Z,100738.34
2022-12-16T11:46:29.361Z,100742.50
2022-12-16T11:51:59.755Z,100736.25
2022-12-16T11:57:44.997Z,100751.84
2022-12-16T12:03:15.591Z,100747.88
2022-12-16T12:08:58.834Z,100741.25
2022-12-16T12:14:19.712Z,100747.88
2022-12-16T12:20:06.306Z,100738.75
2022-12-16T12:25:52.277Z,100741.25
2022-12-16T12:31:31.226Z,100746.44
2022-12-16T12:37:04.789Z,100706.53
2022-12-16T12:42:48.896Z,100742.28
2022-12-16T12:48:56.011Z,100740.41
2022-12-16T12:55:13.760Z,100729.16
2022-12-16T13:00:40.078Z,100732.88
2022-12-16T13:06:01.852Z,100742.44
2022-12-16T13:11:35.410Z,100713.16
2022-12-16T13:17:05.376Z,100750.97
2022-12-16T13:22:52.639Z,100734.59
2022-12-16T13:28:16.161Z,100740.19
2022-12-16T13:33:48.645Z,100738.31
2022-12-16T13:39:12.091Z,100730.63
2022-12-16T13:45:02.011Z,100753.72
2022-12-16T13:51:09.102Z,100748.31
2022-12-16T13:56:35.134Z,100726.28
2022-12-16T14:02:16.876Z,100744.16
2022-12-16T14:07:41.486Z,100753.28
2022-12-16T14:13:26.358Z,100774.28
2022-12-16T14:19:00.257Z,100768.25
2022-12-16T14:24:33.269Z,100769.28
2022-12-16T14:29:54.179Z,100755.38
2022-12-16T14:35:20.870Z,100782.78
2022-12-16T14:40:48.727Z,100788.59
2022-12-16T14:46:09.976Z,100795.66
2022-12-16T14:51:36.393Z,100783.13
2022-12-16T14:56:57.079Z,100768.16
2022-12-16T15:02:30.688Z,100778.91
2022-12-16T15:07:56.177Z,100780.16
2022-12-16T15:13:17.457Z,100774.06
2022-12-16T15:18:45.151Z,100757.81
2022-12-16T15:24:06.305Z,100771.88
2022-12-16T15:29:59.079Z,100795.75
2022-12-16T15:35:19.963Z,100765.16
2022-12-16T15:40:46.703Z,100773.25
2022-12-16T15:46:09.242Z,100771.53
2022-12-16T15:52:06.700Z,100793.69
2022-12-16T15:57:51.906Z,100766.78
2022-12-16T16:03:12.882Z,100781.53
2022-12-16T16:08:33.561Z,100771.25
2022-12-16T16:13:55.898Z,100766.47
2022-12-16T16:19:20.353Z,100806.31
2022-12-16T16:24:40.904Z,100816.47
2022-12-16T16:30:01.981Z,100810.59
2022-12-16T16:35:22.995Z,100814.94
2022-12-16T16:41:01.109Z,100832.94
2022-12-16T16:46:34.538Z,100810.91
2022-12-16T16:51:55.650Z,100823.81
2022-12-16T16:57:19.019Z,100818.00
2022-12-16T17:02:42.942Z,100837.28
2022-12-16T17:08:03.632Z,100823.53
2022-12-16T17:13:24.193Z,100832.63
2022-12-16T17:18:49.021Z,100842.75
2022-12-16T17:24:13.195Z,100827.50
2022-12-16T17:29:51.549Z,100829.56
2022-12-16T17:35:12.961Z,100844.94
2022-12-16T17:40:34.286Z,100845.72
2022-12-16T17:45:55.309Z,100815.31
2022-12-16T17:51:16.151Z,100848.13
2022-12-16T17:56:37.101Z,100854.91
2022-12-16T18:01:57.975Z,100853.72
2022-12-16T18:07:18.969Z,100844.66
2022-12-16T18:12:40.706Z,100874.53
2022-12-16T18:18:01.585Z,100845.25
2022-12-16T18:23:22.293Z,100860.25
2022-12-16T18:28:43.454Z,100851.75
2022-12-16T18:34:06.338Z,100857.56
2022-12-16T18:39:27.758Z,100862.66
2022-12-16T18:44:48.843Z,100836.44
2022-12-16T18:50:09.915Z,100843.03
2022-12-16T18:55:31.102Z,100846.56
2022-12-16T19:00:52.630Z,100866.75
2022-12-16T19:06:14.352Z,100865.94
2022-12-16T19:11:35.213Z,100848.22
2022-12-16T19:16:55.904Z,100862.59
2022-12-16T19:22:16.779Z,100840.38
2022-12-16T19:27:37.749Z,100858.97
2022-12-16T19:32:59.839Z,100859.38
2022-12-16T19:38:20.769Z,100851.59
2022-12-16T19:43:41.660Z,100871.13
2022-12-16T19:49:02.303Z,100812.66
2022-12-16T19:54:23.253Z,100819.50
2022-12-16T19:59:44.259Z,100863.47
2022-12-16T20:05:04.879Z,100877.00
2022-12-16T20:10:26.156Z,100812.84
2022-12-16T20:15:46.934Z,100813.19
2022-12-16T20:21:07.681Z,100842.41
2022-12-16T20:26:28.578Z,100833.78
2022-12-16T20:31:50.215Z,100888.81
2022-12-16T20:37:11.239Z,100849.84
2022-12-16T20:42:31.814Z,100852.72
2022-12-16T20:47:52.732Z,100876.44
2022-12-16T20:53:17.343Z,100856.50
2022-12-16T20:58:39.990Z,100854.00
2022-12-16T21:04:00.775Z,100888.56
2022-12-16T21:09:21.756Z,100892.38
2022-12-16T21:14:42.961Z,100861.97
2022-12-16T21:20:03.785Z,100882.63
2022-12-16T21:25:25.095Z,100884.97
2022-12-16T21:30:46.021Z,100875.31
2022-12-16T21:36:13.611Z,100865.00
2022-12-16T21:41:34.461Z,100862.31
2022-12-16T21:46:55.283Z,100898.03
2022-12-16T21:52:17.388Z,100888.84
2022-12-16T21:57:38.466Z,100891.47
2022-12-16T22:02:59.351Z,100890.78
2022-12-16T22:08:25.805Z,100879.78
2022-12-16T22:13:49.527Z,100834.16
2022-12-16T22:19:14.101Z,100851.69
2022-12-16T22:24:34.801Z,100856.03
2022-12-16T22:29:55.381Z,100853.34
2022-12-16T22:35:16.861Z,100867.63
2022-12-16T22:40:37.710Z,100875.13
2022-12-16T22:46:18.387Z,100856.00
2022-12-16T22:51:39.146Z,100897.56
2022-12-16T22:56:59.984Z,100864.75
2022-12-16T23:02:20.672Z,100866.06
2022-12-16T23:07:41.578Z,100865.47
2022-12-16T23:13:02.467Z,100875.59
2022-12-16T23:18:23.406Z,100888.09
2022-12-16T23:23:44.314Z,100894.69
2022-12-16T23:29:09.585Z,100854.81
2022-12-16T23:34:30.635Z,100867.88
2022-12-16T23:39:51.438Z,100865.19
2022-12-16T23:45:20.297Z,100820.84
2022-12-16T23:50:41.151Z,100859.38
2022-12-16T23:56:01.793Z,100816.44
